createdAt,value
2019-02-25T00:00:56.455Z,9.60
2019-02-25T00:03:22.611Z,9.37
2019-02-25T00:05:48.806Z,10.13
2019-02-25T00:08:14.975Z,12.33
2019-02-25T00:10:41.136Z,11.53
2019-02-25T00:13:07.449Z,11.87
2019-02-25T00:15:33.614Z,11.83
2019-02-25T00:17:59.764Z,9.07
2019-02-25T00:20:25.955Z,6.57
2019-02-25T00:22:52.113Z,8.40
2019-02-25T00:25:18.266Z,5.80
2019-02-25T00:27:44.457Z,5.63
2019-02-25T00:30:12.341Z,6.90
2019-02-25T00:32:38.490Z,7.23
2019-02-25T00:35:05.043Z,7.50
2019-02-25T00:37:31.203Z,6.83
2019-02-25T00:39:57.375Z,7.57
2019-02-25T00:42:23.568Z,6.93
2019-02-25T00:44:49.828Z,11.20
2019-02-25T00:47:16.092Z,10.90
2019-02-25T00:49:42.400Z,10.40
2019-02-25T00:52:08.651Z,8.97
2019-02-25T00:54:34.802Z,6.03
2019-02-25T00:57:01.175Z,7.87
2019-02-25T00:59:27.433Z,9.80
2019-02-25T01:01:53.697Z,9.33
2019-02-25T01:04:19.901Z,9.60
2019-02-25T01:06:46.058Z,10.83
2019-02-25T01:09:12.219Z,10.83
2019-02-25T01:11:38.406Z,10.67
2019-02-25T01:14:04.666Z,12.33
2019-02-25T01:16:30.923Z,12.43
2019-02-25T01:18:57.117Z,14.70
2019-02-25T01:21:23.271Z,14.77
2019-02-25T01:23:49.423Z,14.67
2019-02-25T01:26:15.604Z,13.20
2019-02-25T01:28:41.874Z,15.70
2019-02-25T01:31:08.038Z,10.57
2019-02-25T01:33:34.234Z,13.53
2019-02-25T01:36:00.499Z,16.20
2019-02-25T01:38:26.657Z,15.90
2019-02-25T01:40:52.841Z,14.37
2019-02-25T01:43:19.154Z,14.20
2019-02-25T01:45:45.405Z,15.00
2019-02-25T01:48:11.592Z,12.40
2019-02-25T01:50:37.794Z,11.50
2019-02-25T01:53:03.951Z,11.07
2019-02-25T01:55:30.141Z,9.30
2019-02-25T01:57:56.407Z,7.53
2019-02-25T02:00:22.562Z,10.27
2019-02-25T02:02:48.762Z,8.57
2019-02-25T02:05:14.919Z,10.27
2019-02-25T02:07:41.171Z,10.53
2019-02-25T02:10:12.420Z,14.43
2019-02-25T02:12:38.570Z,14.33
2019-02-25T02:15:29.340Z,17.00
2019-02-25T02:17:55.519Z,10.93
2019-02-25T02:20:21.786Z,8.27
2019-02-25T02:22:47.975Z,10.77
2019-02-25T02:25:14.122Z,15.57
2019-02-25T02:27:40.281Z,16.07
2019-02-25T02:30:15.237Z,13.73
2019-02-25T02:32:41.385Z,15.93
2019-02-25T02:35:07.552Z,14.90
2019-02-25T02:37:33.761Z,17.97
2019-02-25T02:39:59.913Z,12.20
2019-02-25T02:42:26.074Z,16.03
2019-02-25T02:44:53.462Z,15.80
2019-02-25T02:47:35.303Z,17.50
2019-02-25T02:50:09.866Z,16.23
2019-02-25T02:52:36.079Z,15.90
2019-02-25T02:55:02.631Z,19.03
2019-02-25T02:57:28.930Z,18.53
2019-02-25T02:59:55.090Z,20.13
2019-02-25T03:02:21.259Z,16.07
2019-02-25T03:04:47.438Z,12.60
2019-02-25T03:07:13.696Z,8.23
2019-02-25T03:09:39.857Z,9.63
2019-02-25T03:12:06.139Z,7.73
2019-02-25T03:14:32.296Z,5.47
2019-02-25T03:16:58.458Z,4.97
2019-02-25T03:19:24.743Z,9.77
2019-02-25T03:21:50.905Z,13.13
2019-02-25T03:24:17.068Z,12.43
2019-02-25T03:26:43.254Z,7.30
2019-02-25T03:29:09.408Z,14.57
2019-02-25T03:31:35.573Z,14.20
2019-02-25T03:34:01.893Z,10.27
2019-02-25T03:36:28.028Z,11.73
2019-02-25T03:38:54.293Z,8.60
2019-02-25T03:41:20.483Z,9.80
2019-02-25T03:43:46.636Z,10.80
2019-02-25T03:46:12.793Z,9.13
2019-02-25T03:48:38.991Z,9.40
2019-02-25T03:51:05.155Z,8.33
2019-02-25T03:53:32.389Z,8.90
2019-02-25T03:55:58.571Z,6.93
2019-02-25T03:58:25.126Z,9.50
2019-02-25T04:00:51.279Z,10.37
2019-02-25T04:03:17.471Z,7.20
2019-02-25T04:05:43.749Z,8.10
2019-02-25T04:08:09.885Z,10.93
2019-02-25T04:10:36.093Z,11.87
2019-02-25T04:13:02.249Z,10.17
2019-02-25T04:15:33.049Z,11.63
2019-02-25T04:17:59.239Z,8.47
2019-02-25T04:20:25.508Z,10.20
2019-02-25T04:22:51.673Z,9.57
2019-02-25T04:25:17.960Z,9.70
2019-02-25T04:27:44.119Z,9.47
2019-02-25T04:30:13.903Z,11.40
2019-02-25T04:32:40.105Z,10.63
2019-02-25T04:35:08.419Z,11.97
2019-02-25T04:37:34.585Z,18.67
2019-02-25T04:40:00.787Z,21.07
2019-02-25T04:42:26.948Z,16.00
2019-02-25T04:44:53.099Z,13.13
2019-02-25T04:47:19.297Z,13.97
2019-02-25T04:49:45.539Z,13.37
2019-02-25T04:52:11.704Z,14.00
2019-02-25T04:54:37.949Z,15.87
2019-02-25T04:57:04.102Z,13.87
2019-02-25T04:59:30.260Z,16.50
2019-02-25T05:01:56.655Z,15.50
2019-02-25T05:04:22.845Z,11.80
2019-02-25T05:06:48.997Z,19.47
2019-02-25T05:09:15.287Z,14.77
2019-02-25T05:11:41.457Z,17.10
2019-02-25T05:14:07.617Z,14.87
2019-02-25T05:16:33.917Z,15.57
2019-02-25T05:19:00.065Z,16.53
2019-02-25T05:21:26.248Z,14.47
2019-02-25T05:23:52.467Z,14.60
2019-02-25T05:26:18.631Z,11.53
2019-02-25T05:28:44.787Z,15.33
2019-02-25T05:31:10.984Z,16.90
2019-02-25T05:33:37.131Z,22.83
2019-02-25T05:36:03.284Z,22.93
2019-02-25T05:38:29.586Z,24.80
2019-02-25T05:40:55.755Z,22.90
2019-02-25T05:43:21.915Z,20.07
2019-02-25T05:45:48.212Z,18.70
2019-02-25T05:48:14.723Z,18.80
2019-02-25T05:50:40.887Z,18.80
2019-02-25T05:53:07.081Z,19.40
2019-02-25T05:55:33.274Z,16.10
2019-02-25T05:57:59.859Z,15.80
2019-02-25T06:00:33.082Z,91.10
2019-02-25T06:02:59.238Z,29.10
2019-02-25T06:05:25.397Z,27.10
2019-02-25T06:07:51.612Z,24.60
2019-02-25T06:10:17.776Z,23.87
2019-02-25T06:12:44.036Z,38.03
2019-02-25T06:15:12.930Z,106.37
2019-02-25T06:17:39.213Z,40.97
2019-02-25T06:20:10.823Z,39.07
2019-02-25T06:22:37.005Z,32.87
2019-02-25T06:25:05.460Z,34.13
2019-02-25T06:27:31.628Z,42.97
2019-02-25T06:29:57.951Z,28.57
2019-02-25T06:32:24.120Z,19.47
2019-02-25T06:34:50.287Z,31.67
2019-02-25T06:37:16.488Z,34.33
2019-02-25T06:39:42.643Z,26.33
2019-02-25T06:42:08.904Z,32.63
2019-02-25T06:44:35.235Z,37.27
2019-02-25T06:47:01.370Z,58.67
2019-02-25T06:49:27.538Z,43.27
2019-02-25T06:51:53.747Z,41.73
2019-02-25T06:54:19.907Z,35.90
2019-02-25T06:56:46.188Z,52.60
2019-02-25T06:59:12.487Z,86.23
2019-02-25T07:01:38.657Z,51.33
2019-02-25T07:04:06.734Z,50.73
2019-02-25T07:06:51.330Z,42.43
2019-02-25T07:09:28.100Z,40.17
2019-02-25T07:11:56.202Z,38.53
2019-02-25T07:14:42.236Z,35.40
2019-02-25T07:17:10.400Z,38.23
2019-02-25T07:19:41.055Z,30.20
2019-02-25T07:22:09.112Z,30.43
2019-02-25T07:24:39.718Z,26.57
2019-02-25T07:27:10.622Z,17.77
2019-02-25T07:29:55.004Z,20.17
2019-02-25T07:32:25.884Z,24.53
2019-02-25T07:34:59.906Z,20.87
2019-02-25T07:37:44.625Z,25.10
2019-02-25T07:40:12.717Z,18.10
2019-02-25T07:42:52.821Z,20.43
2019-02-25T07:45:29.938Z,26.30
2019-02-25T07:48:00.669Z,24.47
2019-02-25T07:50:31.495Z,37.30
2019-02-25T07:53:02.373Z,33.70
2019-02-25T07:55:30.427Z,31.10
2019-02-25T07:58:10.273Z,37.13
2019-02-25T08:00:50.160Z,42.60
2019-02-25T08:03:27.011Z,39.93
2019-02-25T08:05:57.594Z,41.33
2019-02-25T08:08:31.267Z,37.13
2019-02-25T08:10:59.361Z,46.57
2019-02-25T08:13:27.413Z,42.47
2019-02-25T08:16:04.154Z,42.13
2019-02-25T08:18:43.857Z,37.67
2019-02-25T08:21:24.245Z,41.03
2019-02-25T08:23:55.076Z,48.53
2019-02-25T08:26:39.761Z,47.43
2019-02-25T08:29:14.164Z,45.50
2019-02-25T08:31:57.419Z,45.60
2019-02-25T08:34:41.874Z,47.13
2019-02-25T08:37:19.229Z,37.83
2019-02-25T08:39:59.548Z,30.37
2019-02-25T08:42:31.099Z,16.83
2019-02-25T08:45:02.168Z,10.47
2019-02-25T08:47:30.352Z,10.17
2019-02-25T08:49:56.752Z,13.10
2019-02-25T08:52:22.936Z,12.03
2019-02-25T08:54:49.102Z,41.20
2019-02-25T08:57:15.369Z,34.37
2019-02-25T08:59:41.591Z,33.80
2019-02-25T09:02:07.760Z,30.80
2019-02-25T09:04:34.987Z,27.60
2019-02-25T09:07:01.144Z,33.77
2019-02-25T09:09:27.313Z,28.77
2019-02-25T09:11:53.512Z,29.67
2019-02-25T09:14:19.773Z,26.40
2019-02-25T09:16:45.939Z,27.07
2019-02-25T09:19:12.143Z,24.80
2019-02-25T09:21:38.299Z,23.20
2019-02-25T09:24:04.559Z,20.43
2019-02-25T09:26:30.750Z,21.77
2019-02-25T09:28:57.447Z,19.90
2019-02-25T09:31:23.871Z,20.20
2019-02-25T09:33:50.158Z,20.90
2019-02-25T09:36:16.323Z,10.93
2019-02-25T09:38:42.580Z,12.67
2019-02-25T09:41:08.877Z,17.80
2019-02-25T09:43:35.032Z,18.77
2019-02-25T09:46:01.212Z,15.97
2019-02-25T09:48:27.405Z,11.50
2019-02-25T09:50:53.670Z,15.20
2019-02-25T09:53:19.835Z,16.60
2019-02-25T09:55:46.019Z,20.23
2019-02-25T09:58:12.189Z,11.10
2019-02-25T10:00:38.491Z,15.80
2019-02-25T10:03:04.687Z,17.03
2019-02-25T10:05:30.850Z,14.07
2019-02-25T10:07:57.003Z,14.43
2019-02-25T10:10:23.207Z,11.40
2019-02-25T10:12:49.464Z,11.20
2019-02-25T10:15:26.311Z,12.40
2019-02-25T10:17:52.465Z,14.47
2019-02-25T10:20:18.637Z,12.33
2019-02-25T10:22:44.861Z,12.90
2019-02-25T10:25:11.004Z,7.47
2019-02-25T10:27:37.160Z,9.53
2019-02-25T10:30:06.751Z,12.93
2019-02-25T10:32:32.906Z,13.13
2019-02-25T10:34:59.197Z,8.07
2019-02-25T10:37:25.384Z,8.23
2019-02-25T10:39:51.892Z,7.20
2019-02-25T10:42:18.048Z,7.67
2019-02-25T10:44:44.255Z,7.83
2019-02-25T10:47:10.942Z,10.67
2019-02-25T10:49:38.569Z,6.27
2019-02-25T10:52:06.564Z,9.10
2019-02-25T10:54:32.912Z,6.10
2019-02-25T10:56:59.074Z,6.57
2019-02-25T10:59:25.255Z,6.97
2019-02-25T11:01:51.459Z,7.07
2019-02-25T11:04:19.532Z,4.80
2019-02-25T11:06:45.720Z,7.80
2019-02-25T11:09:22.962Z,8.30
2019-02-25T11:11:50.601Z,7.63
2019-02-25T11:14:17.313Z,6.03
2019-02-25T11:16:44.072Z,8.40
2019-02-25T11:19:11.671Z,7.40
2019-02-25T11:21:39.807Z,16.83
2019-02-25T11:24:06.292Z,7.30
2019-02-25T11:26:33.414Z,6.57
2019-02-25T11:29:00.552Z,6.40
2019-02-25T11:31:29.023Z,6.53
2019-02-25T11:33:56.486Z,10.07
2019-02-25T11:36:22.983Z,9.67
2019-02-25T11:38:49.149Z,9.80
2019-02-25T11:41:15.336Z,7.23
2019-02-25T11:43:43.357Z,6.93
2019-02-25T11:46:09.757Z,7.17
2019-02-25T11:48:35.950Z,8.50
2019-02-25T11:51:02.219Z,7.87
2019-02-25T11:53:28.381Z,7.97
2019-02-25T11:55:54.663Z,9.07
2019-02-25T11:58:20.833Z,6.73
2019-02-25T12:00:47.092Z,4.97
2019-02-25T12:03:13.331Z,7.67
2019-02-25T12:05:39.496Z,8.47
2019-02-25T12:08:05.650Z,9.17
2019-02-25T12:10:31.851Z,6.97
2019-02-25T12:12:58.106Z,6.63
2019-02-25T12:15:24.260Z,6.27
2019-02-25T12:17:52.270Z,8.07
2019-02-25T12:20:18.634Z,7.17
2019-02-25T12:22:44.792Z,8.30
2019-02-25T12:25:19.653Z,7.33
2019-02-25T12:27:45.814Z,5.10
2019-02-25T12:30:20.612Z,6.43
2019-02-25T12:32:46.811Z,5.77
2019-02-25T12:35:12.971Z,4.50
2019-02-25T12:37:39.127Z,7.00
2019-02-25T12:40:10.604Z,6.03
2019-02-25T12:42:36.759Z,7.77
2019-02-25T12:45:05.119Z,7.97
2019-02-25T12:47:31.406Z,5.93
2019-02-25T12:49:57.554Z,7.53
2019-02-25T12:52:23.710Z,4.83
2019-02-25T12:54:49.914Z,7.57
2019-02-25T12:57:16.075Z,6.77
2019-02-25T12:59:42.227Z,8.30
2019-02-25T13:02:08.413Z,7.53
2019-02-25T13:04:34.703Z,7.07
2019-02-25T13:07:00.854Z,8.00
2019-02-25T13:09:27.146Z,4.30
2019-02-25T13:11:53.324Z,10.90
2019-02-25T13:14:19.472Z,8.00
2019-02-25T13:16:45.672Z,7.63
2019-02-25T13:19:13.631Z,5.43
2019-02-25T13:21:39.925Z,7.20
2019-02-25T13:24:07.479Z,7.13
2019-02-25T13:26:34.390Z,7.63
2019-02-25T13:29:02.251Z,7.00
2019-02-25T13:31:28.446Z,8.60
2019-02-25T13:33:54.743Z,7.00
2019-02-25T13:36:20.994Z,5.27
2019-02-25T13:38:47.189Z,9.40
2019-02-25T13:41:13.611Z,6.00
2019-02-25T13:43:39.766Z,7.43
2019-02-25T13:46:05.955Z,7.87
2019-02-25T13:48:32.119Z,5.80
2019-02-25T13:50:58.934Z,11.07
2019-02-25T13:53:25.254Z,8.07
2019-02-25T13:55:51.512Z,7.93
2019-02-25T13:58:17.769Z,8.90
2019-02-25T14:00:44.284Z,8.47
2019-02-25T14:03:10.449Z,10.07
2019-02-25T14:05:36.882Z,6.77
2019-02-25T14:08:03.170Z,7.03
2019-02-25T14:10:29.334Z,6.40
2019-02-25T14:12:55.505Z,8.70
2019-02-25T14:15:22.604Z,7.53
2019-02-25T14:17:48.859Z,6.70
2019-02-25T14:20:17.219Z,6.73
2019-02-25T14:22:43.622Z,8.33
2019-02-25T14:25:12.547Z,8.73
2019-02-25T14:27:38.837Z,7.10
2019-02-25T14:30:09.411Z,6.00
2019-02-25T14:32:35.809Z,6.57
2019-02-25T14:35:02.267Z,8.20
2019-02-25T14:37:28.462Z,7.70
2019-02-25T14:39:56.361Z,8.60
2019-02-25T14:42:23.749Z,10.83
2019-02-25T14:44:52.152Z,7.40
2019-02-25T14:47:22.264Z,10.00
2019-02-25T14:49:47.009Z,9.37
2019-02-25T14:52:13.230Z,11.20
2019-02-25T14:54:39.387Z,9.63
2019-02-25T14:57:05.640Z,9.17
2019-02-25T14:59:31.823Z,11.90
2019-02-25T15:01:59.237Z,12.17
2019-02-25T15:04:26.147Z,8.43
2019-02-25T15:06:52.392Z,10.53
2019-02-25T15:09:18.651Z,9.30
2019-02-25T15:11:44.816Z,13.07
2019-02-25T15:14:12.736Z,11.07
2019-02-25T15:16:39.132Z,13.17
2019-02-25T15:19:05.447Z,12.83
2019-02-25T15:21:31.660Z,11.80
2019-02-25T15:24:00.051Z,14.67
2019-02-25T15:26:27.679Z,13.60
2019-02-25T15:28:56.669Z,17.53
2019-02-25T15:31:22.435Z,10.70
2019-02-25T15:33:49.118Z,10.50
2019-02-25T15:36:17.584Z,9.87
2019-02-25T15:38:43.502Z,15.43
2019-02-25T15:41:11.284Z,14.57
2019-02-25T15:43:37.723Z,11.47
2019-02-25T15:46:04.380Z,17.13
2019-02-25T15:48:30.936Z,22.90
2019-02-25T15:51:00.793Z,19.17
2019-02-25T15:53:26.779Z,16.33
2019-02-25T15:55:53.138Z,19.33
2019-02-25T15:58:19.443Z,18.03
2019-02-25T16:00:46.291Z,16.13
2019-02-25T16:03:13.747Z,17.83
2019-02-25T16:05:40.744Z,16.97
2019-02-25T16:08:09.743Z,20.13
2019-02-25T16:10:36.404Z,14.87
2019-02-25T16:13:05.959Z,17.77
2019-02-25T16:15:31.556Z,16.43
2019-02-25T16:17:57.841Z,13.97
2019-02-25T16:20:25.634Z,19.53
2019-02-25T16:22:51.997Z,12.27
2019-02-25T16:25:20.574Z,19.57
2019-02-25T16:27:49.875Z,15.57
2019-02-25T16:30:16.917Z,17.20
2019-02-25T16:32:44.581Z,12.37
2019-02-25T16:35:13.010Z,14.53
2019-02-25T16:37:39.463Z,15.27
2019-02-25T16:40:14.106Z,12.23
2019-02-25T16:42:41.537Z,16.47
2019-02-25T16:45:23.554Z,13.40
2019-02-25T16:47:49.835Z,11.13
2019-02-25T16:50:16.944Z,10.73
2019-02-25T16:52:45.563Z,24.47
2019-02-25T16:55:15.608Z,18.47
2019-02-25T16:57:43.479Z,11.67
2019-02-25T17:00:12.980Z,67.83
2019-02-25T17:02:40.570Z,36.40
2019-02-25T17:05:07.526Z,57.97
2019-02-25T17:07:33.771Z,49.93
2019-02-25T17:10:00.819Z,48.73
2019-02-25T17:12:29.566Z,38.70
2019-02-25T17:14:55.981Z,31.40
2019-02-25T17:17:22.785Z,19.87
2019-02-25T17:19:51.481Z,15.67
2019-02-25T17:22:18.515Z,19.43
2019-02-25T17:24:44.701Z,20.80
2019-02-25T17:27:11.884Z,21.47
2019-02-25T17:29:39.417Z,24.57
2019-02-25T17:32:06.725Z,18.77
2019-02-25T17:34:34.394Z,37.20
2019-02-25T17:37:01.138Z,54.60
2019-02-25T17:39:28.948Z,46.50
2019-02-25T17:41:57.189Z,208.37
2019-02-25T17:44:27.877Z,48.83
2019-02-25T17:46:51.760Z,44.73
2019-02-25T17:49:19.169Z,30.93
2019-02-25T17:51:45.589Z,31.43
2019-02-25T17:54:12.422Z,24.67
2019-02-25T17:56:40.874Z,29.73
2019-02-25T17:59:09.713Z,29.40
2019-02-25T18:01:36.210Z,24.57
2019-02-25T18:04:04.317Z,35.30
2019-02-25T18:06:31.935Z,32.83
2019-02-25T18:08:59.938Z,28.60
2019-02-25T18:11:27.130Z,28.23
2019-02-25T18:13:55.157Z,26.67
2019-02-25T18:16:21.477Z,24.37
2019-02-25T18:18:50.638Z,36.07
2019-02-25T18:21:16.597Z,26.97
2019-02-25T18:23:42.902Z,32.93
2019-02-25T18:26:09.065Z,24.50
2019-02-25T18:28:37.408Z,67.60
2019-02-25T18:31:04.423Z,30.80
2019-02-25T18:33:31.606Z,59.93
2019-02-25T18:36:00.205Z,59.20
2019-02-25T18:38:27.326Z,17.33
2019-02-25T18:40:54.135Z,20.60
2019-02-25T18:43:22.010Z,12.27
2019-02-25T18:45:48.496Z,27.63
2019-02-25T18:48:14.642Z,18.07
2019-02-25T18:50:40.905Z,16.00
2019-02-25T18:53:07.200Z,20.03
2019-02-25T18:55:34.184Z,24.53
2019-02-25T18:58:01.041Z,11.90
2019-02-25T19:00:30.831Z,9.83
2019-02-25T19:02:58.305Z,17.07
2019-02-25T19:05:27.661Z,20.33
2019-02-25T19:07:55.587Z,20.67
2019-02-25T19:10:24.669Z,19.63
2019-02-25T19:12:58.802Z,26.27
2019-02-25T19:15:34.563Z,21.47
2019-02-25T19:18:06.950Z,29.93
2019-02-25T19:20:34.813Z,39.57
2019-02-25T19:23:03.229Z,35.70
2019-02-25T19:25:33.769Z,20.47
2019-02-25T19:28:03.126Z,22.17
2019-02-25T19:30:39.037Z,22.07
2019-02-25T19:33:10.983Z,24.30
2019-02-25T19:35:35.271Z,25.20
2019-02-25T19:38:07.556Z,19.87
2019-02-25T19:40:33.738Z,17.17
2019-02-25T19:43:03.704Z,15.57
2019-02-25T19:45:28.647Z,12.80
2019-02-25T19:47:57.254Z,11.63
2019-02-25T19:50:23.020Z,13.60
2019-02-25T19:52:49.166Z,10.83
2019-02-25T19:55:17.739Z,14.13
2019-02-25T19:57:43.629Z,14.23
2019-02-25T20:00:22.492Z,18.40
2019-02-25T20:02:48.501Z,24.07
2019-02-25T20:05:19.138Z,32.53
2019-02-25T20:07:45.290Z,23.87
2019-02-25T20:10:13.686Z,19.00
2019-02-25T20:12:39.715Z,17.57
2019-02-25T20:15:11.366Z,23.53
2019-02-25T20:17:37.813Z,24.13
2019-02-25T20:20:08.150Z,17.97
2019-02-25T20:22:36.627Z,19.70
2019-02-25T20:25:05.637Z,19.00
2019-02-25T20:27:32.094Z,18.20
2019-02-25T20:30:00.104Z,20.43
2019-02-25T20:32:26.577Z,19.73
2019-02-25T20:34:54.479Z,18.70
2019-02-25T20:37:22.769Z,22.13
2019-02-25T20:39:48.997Z,27.10
2019-02-25T20:42:21.459Z,26.20
2019-02-25T20:44:43.346Z,25.03
2019-02-25T20:47:09.606Z,26.03
2019-02-25T20:49:35.780Z,22.20
2019-02-25T20:52:01.974Z,16.07
2019-02-25T20:54:28.238Z,12.53
2019-02-25T20:56:55.496Z,13.80
2019-02-25T20:59:23.466Z,11.13
2019-02-25T21:01:51.120Z,11.70
2019-02-25T21:04:20.098Z,11.40
2019-02-25T21:06:46.208Z,11.00
2019-02-25T21:09:12.368Z,15.63
2019-02-25T21:11:38.524Z,17.63
2019-02-25T21:14:04.743Z,22.73
2019-02-25T21:16:33.090Z,20.03
2019-02-25T21:18:59.124Z,15.40
2019-02-25T21:21:25.413Z,19.77
2019-02-25T21:23:51.570Z,16.93
2019-02-25T21:26:17.732Z,15.23
2019-02-25T21:28:44.024Z,17.93
2019-02-25T21:31:13.696Z,18.37
2019-02-25T21:33:38.351Z,16.00
2019-02-25T21:36:04.538Z,17.73
2019-02-25T21:38:30.712Z,18.33
2019-02-25T21:40:56.983Z,18.63
2019-02-25T21:43:26.124Z,15.73
2019-02-25T21:45:52.243Z,14.40
2019-02-25T21:48:21.131Z,12.37
2019-02-25T21:50:47.389Z,10.47
2019-02-25T21:53:15.901Z,10.97
2019-02-25T21:55:41.604Z,10.00
2019-02-25T21:58:07.806Z,10.03
2019-02-25T22:00:36.901Z,9.30
2019-02-25T22:03:02.033Z,9.23
2019-02-25T22:05:28.221Z,8.93
2019-02-25T22:07:56.860Z,8.60
2019-02-25T22:10:22.431Z,9.67
2019-02-25T22:12:48.617Z,8.50
2019-02-25T22:15:18.023Z,9.10
2019-02-25T22:17:48.329Z,8.87
2019-02-25T22:20:16.652Z,8.37
2019-02-25T22:22:43.043Z,7.53
2019-02-25T22:25:14.043Z,8.37
2019-02-25T22:27:41.649Z,7.67
2019-02-25T22:30:13.533Z,7.73
2019-02-25T22:32:40.794Z,8.40
2019-02-25T22:35:10.512Z,7.30
2019-02-25T22:37:37.332Z,7.00
2019-02-25T22:40:10.299Z,6.67
2019-02-25T22:42:37.595Z,6.93
2019-02-25T22:45:08.305Z,6.73
2019-02-25T22:47:35.177Z,7.17
2019-02-25T22:50:01.459Z,7.13
2019-02-25T22:52:29.258Z,7.47
2019-02-25T22:54:55.683Z,6.40
2019-02-25T22:57:23.177Z,7.07
2019-02-25T22:59:51.101Z,7.37
2019-02-25T23:02:17.380Z,6.10
2019-02-25T23:04:45.092Z,7.23
2019-02-25T23:07:13.065Z,7.20
2019-02-25T23:09:41.350Z,6.27
2019-02-25T23:12:07.907Z,6.00
2019-02-25T23:14:35.826Z,4.87
2019-02-25T23:17:04.898Z,6.10
2019-02-25T23:19:39.190Z,6.50
2019-02-25T23:22:05.315Z,7.07
2019-02-25T23:24:34.779Z,6.97
2019-02-25T23:26:59.704Z,6.53
2019-02-25T23:29:28.452Z,5.73
2019-02-25T23:31:53.892Z,7.70
2019-02-25T23:34:20.881Z,5.83
2019-02-25T23:36:49.418Z,9.80
2019-02-25T23:39:17.668Z,9.77
2019-02-25T23:41:46.230Z,8.07
2019-02-25T23:44:13.260Z,9.97
2019-02-25T23:46:40.304Z,9.00
2019-02-25T23:49:06.500Z,9.17
2019-02-25T23:51:32.658Z,10.00
2019-02-25T23:53:58.923Z,11.33
2019-02-25T23:56:27.284Z,11.67
2019-02-25T23:58:53.963Z,18.53
